createdAt,value
2023-01-22T00:00:02.787Z,0.00
2023-01-22T00:01:02.789Z,0.00
2023-01-22T00:02:02.792Z,0.00
2023-01-22T00:03:02.777Z,0.00
2023-01-22T00:04:02.846Z,0.00
2023-01-22T00:05:02.779Z,0.00
2023-01-22T00:06:02.778Z,0.00
2023-01-22T00:07:02.778Z,0.00
2023-01-22T00:08:02.781Z,0.00
2023-01-22T00:09:02.779Z,0.00
2023-01-22T00:10:02.782Z,0.00
2023-01-22T00:11:02.827Z,0.00
2023-01-22T00:12:02.789Z,0.00
2023-01-22T00:13:02.785Z,0.00
2023-01-22T00:14:02.837Z,0.00
2023-01-22T00:15:02.787Z,0.00
2023-01-22T00:16:02.861Z,0.00
2023-01-22T00:17:02.795Z,0.00
2023-01-22T00:18:02.796Z,0.00
2023-01-22T00:19:02.798Z,0.00
2023-01-22T00:20:02.800Z,0.00
2023-01-22T00:21:02.793Z,0.00
2023-01-22T00:22:02.792Z,0.00
2023-01-22T00:23:02.793Z,0.00
2023-01-22T00:24:02.800Z,0.00
2023-01-22T00:25:02.803Z,0.00
2023-01-22T00:26:02.802Z,0.00
2023-01-22T00:27:02.836Z,0.00
2023-01-22T00:28:02.798Z,0.00
2023-01-22T00:29:02.798Z,0.00
2023-01-22T00:30:02.799Z,0.00
2023-01-22T00:31:02.948Z,0.00
2023-01-22T00:32:02.972Z,0.00
2023-01-22T00:33:02.809Z,0.00
2023-01-22T00:34:02.803Z,0.00
2023-01-22T00:35:02.811Z,0.00
2023-01-22T00:36:02.805Z,0.00
2023-01-22T00:37:02.805Z,0.00
2023-01-22T00:38:02.802Z,0.00
2023-01-22T00:39:02.818Z,0.00
2023-01-22T00:40:02.811Z,0.00
2023-01-22T00:41:02.815Z,0.00
2023-01-22T00:42:02.816Z,0.00
2023-01-22T00:43:02.832Z,0.00
2023-01-22T00:44:02.810Z,0.00
2023-01-22T00:45:02.830Z,0.00
2023-01-22T00:46:03.071Z,0.00
2023-01-22T00:47:02.813Z,0.00
2023-01-22T00:48:02.814Z,0.00
2023-01-22T00:49:02.827Z,0.00
2023-01-22T00:50:02.823Z,0.00
2023-01-22T00:51:02.892Z,0.00
2023-01-22T00:52:02.835Z,0.00
2023-01-22T00:53:02.818Z,0.00
2023-01-22T00:54:02.828Z,0.00
2023-01-22T00:55:02.833Z,0.00
2023-01-22T00:56:02.830Z,0.00
2023-01-22T00:57:02.822Z,0.00
2023-01-22T00:58:02.832Z,0.00
2023-01-22T00:59:02.852Z,0.00
2023-01-22T01:00:02.825Z,0.00
2023-01-22T01:01:02.943Z,0.00
2023-01-22T01:02:02.859Z,0.00
2023-01-22T01:03:02.833Z,0.00
2023-01-22T01:04:02.837Z,0.00
2023-01-22T01:05:02.834Z,0.00
2023-01-22T01:06:02.839Z,0.00
2023-01-22T01:07:02.839Z,0.00
2023-01-22T01:08:02.856Z,0.00
2023-01-22T01:09:02.835Z,0.00
2023-01-22T01:10:02.836Z,0.00
2023-01-22T01:11:02.833Z,0.00
2023-01-22T01:12:02.841Z,0.00
2023-01-22T01:13:02.844Z,0.00
2023-01-22T01:14:02.847Z,0.00
2023-01-22T01:15:02.977Z,0.00
2023-01-22T01:16:02.907Z,0.00
2023-01-22T01:17:02.848Z,0.00
2023-01-22T01:18:02.842Z,0.00
2023-01-22T01:19:02.857Z,0.00
2023-01-22T01:20:02.844Z,0.00
2023-01-22T01:21:02.857Z,0.00
2023-01-22T01:22:02.858Z,0.00
2023-01-22T01:23:02.857Z,0.00
2023-01-22T01:24:02.854Z,0.00
2023-01-22T01:25:02.857Z,0.00
2023-01-22T01:26:02.852Z,0.00
2023-01-22T01:27:02.854Z,0.00
2023-01-22T01:28:02.854Z,0.00
2023-01-22T01:29:02.862Z,0.00
2023-01-22T01:30:02.862Z,0.00
2023-01-22T01:31:03.177Z,0.00
2023-01-22T01:32:02.973Z,0.00
2023-01-22T01:33:02.864Z,0.00
2023-01-22T01:34:02.871Z,0.00
2023-01-22T01:35:02.862Z,0.00
2023-01-22T01:36:02.873Z,0.00
2023-01-22T01:37:02.871Z,0.00
2023-01-22T01:38:02.861Z,0.00
2023-01-22T01:39:02.868Z,0.00
2023-01-22T01:40:02.872Z,0.00
2023-01-22T01:41:02.870Z,0.00
2023-01-22T01:42:02.864Z,0.00
2023-01-22T01:43:02.868Z,0.00
2023-01-22T01:44:02.871Z,0.00
2023-01-22T01:45:02.877Z,0.00
2023-01-22T01:46:02.870Z,0.00
2023-01-22T01:47:02.987Z,0.00
2023-01-22T01:48:02.880Z,0.00
2023-01-22T01:49:02.886Z,0.00
2023-01-22T01:50:02.877Z,0.00
2023-01-22T01:51:02.950Z,0.00
2023-01-22T01:52:02.897Z,0.00
2023-01-22T01:53:02.879Z,0.00
2023-01-22T01:54:02.887Z,0.00
2023-01-22T01:55:02.886Z,0.00
2023-01-22T01:56:02.882Z,0.00
2023-01-22T01:57:02.905Z,0.00
2023-01-22T01:58:02.889Z,0.00
2023-01-22T01:59:02.893Z,0.00
2023-01-22T02:00:02.892Z,0.00
2023-01-22T02:01:02.962Z,0.00
2023-01-22T02:02:02.945Z,0.00
2023-01-22T02:03:03.011Z,0.00
2023-01-22T02:04:02.896Z,0.00
2023-01-22T02:05:02.897Z,0.00
2023-01-22T02:06:02.892Z,0.00
2023-01-22T02:07:02.891Z,0.00
2023-01-22T02:08:02.911Z,0.00
2023-01-22T02:09:02.892Z,0.00
2023-01-22T02:10:02.895Z,0.00
2023-01-22T02:11:02.902Z,0.00
2023-01-22T02:12:02.904Z,0.00
2023-01-22T02:13:02.896Z,0.00
2023-01-22T02:14:02.930Z,0.00
2023-01-22T02:15:02.900Z,0.00
2023-01-22T02:16:02.946Z,0.00
2023-01-22T02:17:02.906Z,0.00
2023-01-22T02:18:02.900Z,0.00
2023-01-22T02:19:03.024Z,0.00
2023-01-22T02:20:02.908Z,0.00
2023-01-22T02:21:02.917Z,0.00
2023-01-22T02:22:02.915Z,0.00
2023-01-22T02:23:02.912Z,0.00
2023-01-22T02:24:02.908Z,0.00
2023-01-22T02:25:02.915Z,0.00
2023-01-22T02:26:02.921Z,0.00
2023-01-22T02:27:02.918Z,0.00
2023-01-22T02:28:02.915Z,0.00
2023-01-22T02:29:02.914Z,0.00
2023-01-22T02:30:02.912Z,0.00
2023-01-22T02:31:02.954Z,0.00
2023-01-22T02:32:02.916Z,0.00
2023-01-22T02:33:02.915Z,0.00
2023-01-22T02:34:02.925Z,0.00
2023-01-22T02:35:03.031Z,0.00
2023-01-22T02:36:02.937Z,0.00
2023-01-22T02:37:02.930Z,0.00
2023-01-22T02:38:02.939Z,0.00
2023-01-22T02:39:02.928Z,0.00
2023-01-22T02:40:02.923Z,0.00
2023-01-22T02:41:02.942Z,0.00
2023-01-22T02:42:02.933Z,0.00
2023-01-22T02:43:02.931Z,0.00
2023-01-22T02:44:02.954Z,0.00
2023-01-22T02:45:02.932Z,0.00
2023-01-22T02:46:02.991Z,0.00
2023-01-22T02:47:02.946Z,0.00
2023-01-22T02:48:02.938Z,0.00
2023-01-22T02:49:02.937Z,0.00
2023-01-22T02:50:02.941Z,0.00
2023-01-22T02:51:03.097Z,0.00
2023-01-22T02:52:02.939Z,0.00
2023-01-22T02:53:02.934Z,0.00
2023-01-22T02:54:02.940Z,0.00
2023-01-22T02:55:02.941Z,0.00
2023-01-22T02:56:02.947Z,0.00
2023-01-22T02:57:02.946Z,0.00
2023-01-22T02:58:02.948Z,0.00
2023-01-22T02:59:02.939Z,0.00
2023-01-22T03:00:02.958Z,0.00
2023-01-22T03:01:02.975Z,0.00
2023-01-22T03:02:02.967Z,0.00
2023-01-22T03:03:02.943Z,0.00
2023-01-22T03:04:02.954Z,0.00
2023-01-22T03:05:02.972Z,0.00
2023-01-22T03:06:02.953Z,0.00
2023-01-22T03:07:03.072Z,0.00
2023-01-22T03:08:02.955Z,0.00
2023-01-22T03:09:02.955Z,0.00
2023-01-22T03:10:02.958Z,0.00
2023-01-22T03:11:02.950Z,0.00
2023-01-22T03:12:02.981Z,0.00
2023-01-22T03:13:02.970Z,0.00
2023-01-22T03:14:02.965Z,0.00
2023-01-22T03:15:02.959Z,0.00
2023-01-22T03:16:03.015Z,0.00
2023-01-22T03:17:03.014Z,0.00
2023-01-22T03:18:02.955Z,0.00
2023-01-22T03:19:02.962Z,0.00
2023-01-22T03:20:02.965Z,0.00
2023-01-22T03:21:02.964Z,0.00
2023-01-22T03:22:02.969Z,0.00
2023-01-22T03:23:03.082Z,0.00
2023-01-22T03:24:02.966Z,0.00
2023-01-22T03:25:02.962Z,0.00
2023-01-22T03:26:02.977Z,0.00
2023-01-22T03:27:02.971Z,0.00
2023-01-22T03:28:02.973Z,0.00
2023-01-22T03:29:02.990Z,0.00
2023-01-22T03:30:02.977Z,0.00
2023-01-22T03:31:03.080Z,0.00
2023-01-22T03:32:03.035Z,0.00
2023-01-22T03:33:02.999Z,0.00
2023-01-22T03:34:02.981Z,0.00
2023-01-22T03:35:02.983Z,0.00
2023-01-22T03:36:02.980Z,0.00
2023-01-22T03:37:02.972Z,0.00
2023-01-22T03:38:02.975Z,0.00
2023-01-22T03:39:03.094Z,0.00
2023-01-22T03:40:02.991Z,0.00
2023-01-22T03:41:02.986Z,0.00
2023-01-22T03:42:02.985Z,0.00
2023-01-22T03:43:02.993Z,0.00
2023-01-22T03:44:02.987Z,0.00
2023-01-22T03:45:02.999Z,0.00
2023-01-22T03:46:03.094Z,0.00
2023-01-22T03:47:02.992Z,0.00
2023-01-22T03:48:02.999Z,0.00
2023-01-22T03:49:02.995Z,0.00
2023-01-22T03:50:02.992Z,0.00
2023-01-22T03:51:03.066Z,0.00
2023-01-22T03:52:03.007Z,0.00
2023-01-22T03:53:02.995Z,0.00
2023-01-22T03:54:03.001Z,0.00
2023-01-22T03:55:03.112Z,0.00
2023-01-22T03:56:02.999Z,0.00
2023-01-22T03:57:03.019Z,0.00
2023-01-22T03:58:03.000Z,0.00
2023-01-22T03:59:03.009Z,0.00
2023-01-22T04:00:02.995Z,0.00
2023-01-22T04:01:03.027Z,0.00
2023-01-22T04:02:03.040Z,0.00
2023-01-22T04:03:02.999Z,0.00
2023-01-22T04:04:03.218Z,0.00
2023-01-22T04:05:03.015Z,0.00
2023-01-22T04:06:02.999Z,0.00
2023-01-22T04:07:03.000Z,0.00
2023-01-22T04:08:03.011Z,0.00
2023-01-22T04:09:03.010Z,0.00
2023-01-22T04:10:03.015Z,0.00
2023-01-22T04:11:03.146Z,0.00
2023-01-22T04:12:03.004Z,0.00
2023-01-22T04:13:03.028Z,0.00
2023-01-22T04:14:03.019Z,0.00
2023-01-22T04:15:03.027Z,0.00
2023-01-22T04:16:03.009Z,0.00
2023-01-22T04:17:03.011Z,0.00
2023-01-22T04:18:03.019Z,0.00
2023-01-22T04:19:03.013Z,0.00
2023-01-22T04:20:03.020Z,0.00
2023-01-22T04:21:03.040Z,0.00
2023-01-22T04:22:03.021Z,0.00
2023-01-22T04:23:03.019Z,0.00
2023-01-22T04:24:03.024Z,0.00
2023-01-22T04:25:03.028Z,0.00
2023-01-22T04:26:03.021Z,0.00
2023-01-22T04:27:03.155Z,0.00
2023-01-22T04:28:03.020Z,0.00
2023-01-22T04:29:03.019Z,0.00
2023-01-22T04:30:03.019Z,0.00
2023-01-22T04:31:03.150Z,0.00
2023-01-22T04:32:03.026Z,0.00
2023-01-22T04:33:03.030Z,0.00
2023-01-22T04:34:03.028Z,0.00
2023-01-22T04:35:03.038Z,0.00
2023-01-22T04:36:03.028Z,0.00
2023-01-22T04:37:03.039Z,0.00
2023-01-22T04:38:03.040Z,0.00
2023-01-22T04:39:03.073Z,0.00
2023-01-22T04:40:03.057Z,0.00
2023-01-22T04:41:03.033Z,0.00
2023-01-22T04:42:03.067Z,0.00
2023-01-22T04:43:08.926Z,0.00
2023-01-22T04:44:03.238Z,0.00
2023-01-22T04:45:03.080Z,0.00
2023-01-22T04:46:03.125Z,0.00
2023-01-22T04:47:03.035Z,0.00
2023-01-22T04:48:03.038Z,0.00
2023-01-22T04:49:03.047Z,0.00
2023-01-22T04:50:03.049Z,0.00
2023-01-22T04:51:03.073Z,0.00
2023-01-22T04:52:03.048Z,0.00
2023-01-22T04:53:03.057Z,0.00
2023-01-22T04:54:03.048Z,0.00
2023-01-22T04:55:03.046Z,0.00
2023-01-22T04:56:03.053Z,0.00
2023-01-22T04:57:03.054Z,0.00
2023-01-22T04:58:03.056Z,0.00
2023-01-22T04:59:03.072Z,0.00
2023-01-22T05:00:03.195Z,0.00
2023-01-22T05:01:03.124Z,0.00
2023-01-22T05:02:03.053Z,0.00
2023-01-22T05:03:03.062Z,0.00
2023-01-22T05:04:03.058Z,0.00
2023-01-22T05:05:03.060Z,0.00
2023-01-22T05:06:03.053Z,0.00
2023-01-22T05:07:03.064Z,0.00
2023-01-22T05:08:03.071Z,0.00
2023-01-22T05:09:03.064Z,0.00
2023-01-22T05:10:03.103Z,0.00
2023-01-22T05:11:03.075Z,0.00
2023-01-22T05:12:03.083Z,0.00
2023-01-22T05:13:03.073Z,0.00
2023-01-22T05:14:03.067Z,0.00
2023-01-22T05:15:07.295Z,0.00
2023-01-22T05:16:03.264Z,0.00
2023-01-22T05:17:03.071Z,0.00
2023-01-22T05:18:03.072Z,0.00
2023-01-22T05:19:03.069Z,0.00
2023-01-22T05:20:03.075Z,0.00
2023-01-22T05:21:03.075Z,0.00
2023-01-22T05:22:03.067Z,0.00
2023-01-22T05:23:03.079Z,0.00
2023-01-22T05:24:03.084Z,0.00
2023-01-22T05:25:03.077Z,0.00
2023-01-22T05:26:03.082Z,0.00
2023-01-22T05:27:03.093Z,0.00
2023-01-22T05:28:03.079Z,0.00
2023-01-22T05:29:03.084Z,0.00
2023-01-22T05:30:03.083Z,0.00
2023-01-22T05:31:03.157Z,0.00
2023-01-22T05:32:03.199Z,0.00
2023-01-22T05:33:03.089Z,0.00
2023-01-22T05:34:03.091Z,0.00
2023-01-22T05:35:03.087Z,0.00
2023-01-22T05:36:03.094Z,0.00
2023-01-22T05:37:03.083Z,0.00
2023-01-22T05:38:03.097Z,0.00
2023-01-22T05:39:03.092Z,0.00
2023-01-22T05:40:03.089Z,0.00
2023-01-22T05:41:03.092Z,0.00
2023-01-22T05:42:03.095Z,0.00
2023-01-22T05:43:03.093Z,0.00
2023-01-22T05:44:03.090Z,0.00
2023-01-22T05:45:03.113Z,0.00
2023-01-22T05:46:03.156Z,0.00
2023-01-22T05:47:03.107Z,0.00
2023-01-22T05:48:03.225Z,0.00
2023-01-22T05:49:03.105Z,0.00
2023-01-22T05:50:03.112Z,0.00
2023-01-22T05:51:03.138Z,0.00
2023-01-22T05:52:03.106Z,0.00
2023-01-22T05:53:03.100Z,0.00
2023-01-22T05:54:03.100Z,0.00
2023-01-22T05:55:03.134Z,0.00
2023-01-22T05:56:03.108Z,0.00
2023-01-22T05:57:03.112Z,0.00
2023-01-22T05:58:04.802Z,0.00
2023-01-22T05:59:03.112Z,0.00
2023-01-22T06:00:03.115Z,0.00
2023-01-22T06:01:03.115Z,0.00
2023-01-22T06:02:03.121Z,0.00
2023-01-22T06:03:03.117Z,0.00
2023-01-22T06:04:03.244Z,0.00
2023-01-22T06:05:03.137Z,0.00
2023-01-22T06:06:03.123Z,0.00
2023-01-22T06:07:03.120Z,0.00
2023-01-22T06:08:03.123Z,0.00
2023-01-22T06:09:03.116Z,0.00
2023-01-22T06:10:03.121Z,0.00
2023-01-22T06:11:03.136Z,0.00
2023-01-22T06:12:03.128Z,0.00
2023-01-22T06:13:03.130Z,0.00
2023-01-22T06:14:03.121Z,0.00
2023-01-22T06:15:03.128Z,0.00
2023-01-22T06:16:03.194Z,0.00
2023-01-22T06:17:03.131Z,0.00
2023-01-22T06:18:03.140Z,0.00
2023-01-22T06:19:03.132Z,0.00
2023-01-22T06:20:03.268Z,0.00
2023-01-22T06:21:03.126Z,0.00
2023-01-22T06:22:03.134Z,0.00
2023-01-22T06:23:03.141Z,0.00
2023-01-22T06:24:03.142Z,0.00
2023-01-22T06:25:03.152Z,0.00
2023-01-22T06:26:03.138Z,0.00
2023-01-22T06:27:03.138Z,0.00
2023-01-22T06:28:03.136Z,0.00
2023-01-22T06:29:03.141Z,0.00
2023-01-22T06:30:03.141Z,0.00
2023-01-22T06:31:03.273Z,0.00
2023-01-22T06:32:03.150Z,0.00
2023-01-22T06:33:03.157Z,0.00
2023-01-22T06:34:03.147Z,0.00
2023-01-22T06:35:03.149Z,0.00
2023-01-22T06:36:03.272Z,0.00
2023-01-22T06:37:03.145Z,0.00
2023-01-22T06:38:03.147Z,0.00
2023-01-22T06:39:03.152Z,0.00
2023-01-22T06:40:03.152Z,4.00
2023-01-22T06:41:03.165Z,4.00
2023-01-22T06:42:03.169Z,0.00
2023-01-22T06:43:03.156Z,4.00
2023-01-22T06:44:03.160Z,4.00
2023-01-22T06:45:03.151Z,4.00
2023-01-22T06:46:03.159Z,4.00
2023-01-22T06:47:03.162Z,4.00
2023-01-22T06:48:03.165Z,4.00
2023-01-22T06:49:03.164Z,8.00
2023-01-22T06:50:03.162Z,8.00
2023-01-22T06:51:03.204Z,8.00
2023-01-22T06:52:03.285Z,8.00
2023-01-22T06:53:03.172Z,12.00
2023-01-22T06:54:03.170Z,12.00
2023-01-22T06:55:03.178Z,16.00
2023-01-22T06:56:03.164Z,20.00
2023-01-22T06:57:03.166Z,20.00
2023-01-22T06:58:03.168Z,20.00
2023-01-22T06:59:03.168Z,24.00
2023-01-22T07:00:03.174Z,28.00
2023-01-22T07:01:03.173Z,28.00
2023-01-22T07:02:03.169Z,32.00
2023-01-22T07:03:03.171Z,36.00
2023-01-22T07:04:03.282Z,40.00
2023-01-22T07:05:03.184Z,44.00
2023-01-22T07:06:03.189Z,44.00
2023-01-22T07:07:03.185Z,56.00
2023-01-22T07:08:03.305Z,56.00
2023-01-22T07:09:03.197Z,64.00
2023-01-22T07:10:03.178Z,76.00
2023-01-22T07:11:03.187Z,84.00
2023-01-22T07:12:03.181Z,96.00
2023-01-22T07:13:03.181Z,104.00
2023-01-22T07:14:03.200Z,108.00
2023-01-22T07:15:03.193Z,124.00
2023-01-22T07:16:03.225Z,136.00
2023-01-22T07:17:03.184Z,140.00
2023-01-22T07:18:03.202Z,144.00
2023-01-22T07:19:03.195Z,156.00
2023-01-22T07:20:03.196Z,168.00
2023-01-22T07:21:03.221Z,172.00
2023-01-22T07:22:03.195Z,188.00
2023-01-22T07:23:03.200Z,200.00
2023-01-22T07:24:03.320Z,212.00
2023-01-22T07:25:03.205Z,204.00
2023-01-22T07:26:03.192Z,208.00
2023-01-22T07:27:03.201Z,224.00
2023-01-22T07:28:03.211Z,240.00
2023-01-22T07:29:03.208Z,288.00
2023-01-22T07:30:03.208Z,296.00
2023-01-22T07:31:03.526Z,272.00
2023-01-22T07:32:03.209Z,280.00
2023-01-22T07:33:03.203Z,280.00
2023-01-22T07:34:03.201Z,284.00
2023-01-22T07:35:03.203Z,308.00
2023-01-22T07:36:03.206Z,308.00
2023-01-22T07:37:03.207Z,320.00
2023-01-22T07:38:03.213Z,340.00
2023-01-22T07:39:03.230Z,364.00
2023-01-22T07:40:03.325Z,380.00
2023-01-22T07:41:04.359Z,392.00
2023-01-22T07:42:03.218Z,408.00
2023-01-22T07:43:03.221Z,416.00
2023-01-22T07:44:03.219Z,424.00
2023-01-22T07:45:03.214Z,428.00
2023-01-22T07:46:03.229Z,452.00
2023-01-22T07:47:03.221Z,472.00
2023-01-22T07:48:03.218Z,512.00
2023-01-22T07:49:03.220Z,552.00
2023-01-22T07:50:03.227Z,564.00
2023-01-22T07:51:03.293Z,576.00
2023-01-22T07:52:03.222Z,612.00
2023-01-22T07:53:03.236Z,684.00
2023-01-22T07:54:03.223Z,664.00
2023-01-22T07:55:03.235Z,628.00
2023-01-22T07:56:03.353Z,652.00
2023-01-22T07:57:03.245Z,592.00
2023-01-22T07:58:03.236Z,572.00
2023-01-22T07:59:03.231Z,584.00
2023-01-22T08:00:03.239Z,588.00
2023-01-22T08:01:03.251Z,588.00
2023-01-22T08:02:03.810Z,588.00
2023-01-22T08:03:03.232Z,600.00
2023-01-22T08:04:03.247Z,592.00
2023-01-22T08:05:03.234Z,568.00
2023-01-22T08:06:03.243Z,532.00
2023-01-22T08:07:03.246Z,492.00
2023-01-22T08:08:03.245Z,528.00
2023-01-22T08:09:03.249Z,508.00
2023-01-22T08:10:03.248Z,524.00
2023-01-22T08:11:03.243Z,496.00
2023-01-22T08:12:03.364Z,504.00
2023-01-22T08:13:03.255Z,520.00
2023-01-22T08:14:03.251Z,500.00
2023-01-22T08:15:03.255Z,548.00
2023-01-22T08:16:03.356Z,548.00
2023-01-22T08:17:03.250Z,600.00
2023-01-22T08:18:03.260Z,628.00
2023-01-22T08:19:03.259Z,660.00
2023-01-22T08:20:03.252Z,640.00
2023-01-22T08:21:03.261Z,684.00
2023-01-22T08:22:03.261Z,676.00
2023-01-22T08:23:03.256Z,668.00
2023-01-22T08:24:03.269Z,668.00
2023-01-22T08:25:03.256Z,736.00
2023-01-22T08:26:03.257Z,820.00
2023-01-22T08:27:03.265Z,748.00
2023-01-22T08:28:03.380Z,956.00
2023-01-22T08:29:06.480Z,1004.00
2023-01-22T08:30:03.280Z,1104.00
2023-01-22T08:31:03.312Z,1204.00
2023-01-22T08:32:03.422Z,1272.00
2023-01-22T08:33:03.265Z,1248.00
2023-01-22T08:34:03.267Z,1552.00
2023-01-22T08:35:03.275Z,1448.00
2023-01-22T08:36:03.277Z,1544.00
2023-01-22T08:37:03.269Z,1728.00
2023-01-22T08:38:03.279Z,1744.00
2023-01-22T08:39:03.274Z,1856.00
2023-01-22T08:40:03.279Z,1916.00
2023-01-22T08:41:03.291Z,1972.00
2023-01-22T08:42:03.276Z,1976.00
2023-01-22T08:43:03.282Z,2064.00
2023-01-22T08:44:03.407Z,2164.00
2023-01-22T08:45:03.278Z,2176.00
2023-01-22T08:46:03.339Z,2256.00
2023-01-22T08:47:03.286Z,2396.00
2023-01-22T08:48:03.280Z,2296.00
2023-01-22T08:49:03.290Z,2372.00
2023-01-22T08:50:03.290Z,2328.00
2023-01-22T08:51:03.366Z,2468.00
2023-01-22T08:52:03.300Z,2380.00
2023-01-22T08:53:03.299Z,2428.00
2023-01-22T08:54:03.293Z,2356.00
2023-01-22T08:55:03.291Z,2316.00
2023-01-22T08:56:03.295Z,2544.00
2023-01-22T08:57:03.304Z,2648.00
2023-01-22T08:58:03.323Z,2528.00
2023-01-22T08:59:03.303Z,2428.00
2023-01-22T09:00:03.425Z,2436.00
2023-01-22T09:01:03.365Z,2412.00
2023-01-22T09:02:03.346Z,2488.00
2023-01-22T09:03:03.311Z,2500.00
2023-01-22T09:04:03.326Z,2664.00
2023-01-22T09:05:03.312Z,2676.00
2023-01-22T09:06:03.315Z,2584.00
2023-01-22T09:07:03.309Z,2780.00
2023-01-22T09:08:03.316Z,2648.00
2023-01-22T09:09:03.319Z,2896.00
2023-01-22T09:10:03.317Z,3244.00
2023-01-22T09:11:03.332Z,3332.00
2023-01-22T09:12:03.321Z,2984.00
2023-01-22T09:13:03.330Z,2940.00
2023-01-22T09:14:03.319Z,3076.00
2023-01-22T09:15:03.324Z,3176.00
2023-01-22T09:16:03.447Z,3544.00
2023-01-22T09:17:03.327Z,3748.00
2023-01-22T09:18:03.336Z,3680.00
2023-01-22T09:19:03.332Z,3432.00
2023-01-22T09:20:03.333Z,3168.00
2023-01-22T09:21:03.335Z,3188.00
2023-01-22T09:22:03.362Z,3392.00
2023-01-22T09:23:03.329Z,3076.00
2023-01-22T09:24:03.330Z,2920.00
2023-01-22T09:25:03.341Z,2936.00
2023-01-22T09:26:03.355Z,2856.00
2023-01-22T09:27:03.340Z,2884.00
2023-01-22T09:28:03.338Z,2512.00
2023-01-22T09:29:03.348Z,2492.00
2023-01-22T09:30:03.353Z,2540.00
2023-01-22T09:31:03.401Z,2392.00
2023-01-22T09:32:03.581Z,2356.00
2023-01-22T09:33:03.370Z,2100.00
2023-01-22T09:34:03.348Z,2124.00
2023-01-22T09:35:03.355Z,1792.00
2023-01-22T09:36:03.350Z,1712.00
2023-01-22T09:37:03.362Z,1496.00
2023-01-22T09:38:03.374Z,1404.00
2023-01-22T09:39:03.364Z,1344.00
2023-01-22T09:40:03.359Z,1224.00
2023-01-22T09:41:03.417Z,1148.00
2023-01-22T09:42:03.365Z,1184.00
2023-01-22T09:43:03.396Z,1468.00
2023-01-22T09:44:03.368Z,1556.00
2023-01-22T09:45:03.380Z,1728.00
2023-01-22T09:46:03.468Z,1744.00
2023-01-22T09:47:03.377Z,1660.00
2023-01-22T09:48:03.505Z,1892.00
2023-01-22T09:49:03.395Z,1836.00
2023-01-22T09:50:03.371Z,1860.00
2023-01-22T09:51:03.435Z,2100.00
2023-01-22T09:52:05.238Z,2168.00
2023-01-22T09:53:03.379Z,2344.00
2023-01-22T09:54:03.380Z,2360.00
2023-01-22T09:55:03.398Z,2468.00
2023-01-22T09:56:03.396Z,2640.00
2023-01-22T09:57:03.394Z,2984.00
2023-01-22T09:58:03.392Z,3024.00
2023-01-22T09:59:03.406Z,2928.00
2023-01-22T10:00:03.394Z,2884.00
2023-01-22T10:01:03.440Z,2572.00
2023-01-22T10:02:03.457Z,2604.00
2023-01-22T10:03:03.392Z,2492.00
2023-01-22T10:04:03.513Z,2308.00
2023-01-22T10:05:03.406Z,2340.00
2023-01-22T10:06:03.407Z,2400.00
2023-01-22T10:07:03.419Z,2108.00
2023-01-22T10:08:03.400Z,2316.00
2023-01-22T10:09:03.402Z,2284.00
2023-01-22T10:10:03.455Z,2324.00
2023-01-22T10:11:03.407Z,2524.00
2023-01-22T10:12:03.409Z,2668.00
2023-01-22T10:13:03.420Z,2660.00
2023-01-22T10:14:03.419Z,2448.00
2023-01-22T10:15:03.421Z,2452.00
2023-01-22T10:16:03.437Z,2396.00
2023-01-22T10:17:03.417Z,2468.00
2023-01-22T10:18:03.428Z,2584.00
2023-01-22T10:19:03.425Z,2760.00
2023-01-22T10:20:03.542Z,2648.00
2023-01-22T10:21:03.424Z,2452.00
2023-01-22T10:22:03.432Z,2532.00
2023-01-22T10:23:03.440Z,2468.00
2023-01-22T10:24:03.452Z,2640.00
2023-01-22T10:25:03.440Z,2772.00
2023-01-22T10:26:03.433Z,2752.00
2023-01-22T10:27:03.441Z,2812.00
2023-01-22T10:28:03.444Z,2776.00
2023-01-22T10:29:03.448Z,2896.00
2023-01-22T10:30:03.436Z,2924.00
2023-01-22T10:31:03.555Z,2656.00
2023-01-22T10:32:03.445Z,2920.00
2023-01-22T10:33:03.446Z,2828.00
2023-01-22T10:34:03.451Z,3024.00
2023-01-22T10:35:03.449Z,3120.00
2023-01-22T10:36:03.602Z,2812.00
2023-01-22T10:37:03.456Z,2828.00
2023-01-22T10:38:03.452Z,2804.00
2023-01-22T10:39:03.455Z,3004.00
2023-01-22T10:40:03.462Z,3076.00
2023-01-22T10:41:03.465Z,2740.00
2023-01-22T10:42:03.460Z,2588.00
2023-01-22T10:43:03.469Z,2864.00
2023-01-22T10:44:03.463Z,2868.00
2023-01-22T10:45:03.474Z,2828.00
2023-01-22T10:46:03.493Z,3160.00
2023-01-22T10:47:03.473Z,3236.00
2023-01-22T10:48:03.470Z,3512.00
2023-01-22T10:49:03.479Z,3660.00
2023-01-22T10:50:17.292Z,3496.00
2023-01-22T10:51:03.539Z,3328.00
2023-01-22T10:52:03.596Z,3604.00
2023-01-22T10:53:03.483Z,3692.00
2023-01-22T10:54:03.486Z,3852.00
2023-01-22T10:55:03.489Z,3664.00
2023-01-22T10:56:03.495Z,3312.00
2023-01-22T10:57:03.484Z,3136.00
2023-01-22T10:58:03.491Z,3572.00
2023-01-22T10:59:03.502Z,3700.00
2023-01-22T11:00:03.495Z,3588.00
2023-01-22T11:01:03.557Z,3320.00
2023-01-22T11:02:03.492Z,3772.00
2023-01-22T11:03:03.498Z,3552.00
2023-01-22T11:04:03.503Z,3332.00
2023-01-22T11:05:03.513Z,3684.00
2023-01-22T11:06:03.497Z,3800.00
2023-01-22T11:07:03.509Z,3364.00
2023-01-22T11:08:03.625Z,3216.00
2023-01-22T11:09:03.507Z,3536.00
2023-01-22T11:10:03.513Z,3280.00
2023-01-22T11:11:03.516Z,3308.00
2023-01-22T11:12:03.526Z,3444.00
2023-01-22T11:13:03.514Z,3528.00
2023-01-22T11:14:03.519Z,3224.00
2023-01-22T11:15:03.513Z,3328.00
2023-01-22T11:16:03.546Z,3472.00
2023-01-22T11:17:03.527Z,3168.00
2023-01-22T11:18:03.530Z,3256.00
2023-01-22T11:19:03.535Z,3280.00
2023-01-22T11:20:03.529Z,3428.00
2023-01-22T11:21:03.536Z,3668.00
2023-01-22T11:22:03.542Z,3228.00
2023-01-22T11:23:03.539Z,3356.00
2023-01-22T11:24:03.680Z,3060.00
2023-01-22T11:25:03.543Z,2952.00
2023-01-22T11:26:03.554Z,3184.00
2023-01-22T11:27:03.543Z,3312.00
2023-01-22T11:28:03.554Z,3320.00
2023-01-22T11:29:03.543Z,2792.00
2023-01-22T11:30:03.545Z,2696.00
2023-01-22T11:31:03.696Z,3136.00
2023-01-22T11:32:03.550Z,3068.00
2023-01-22T11:33:03.566Z,3324.00
2023-01-22T11:34:03.567Z,3272.00
2023-01-22T11:35:03.567Z,3328.00
2023-01-22T11:36:03.557Z,3404.00
2023-01-22T11:37:03.565Z,3240.00
2023-01-22T11:38:03.578Z,3640.00
2023-01-22T11:39:03.572Z,3184.00
2023-01-22T11:40:03.752Z,3104.00
2023-01-22T11:41:03.564Z,3276.00
2023-01-22T11:42:03.575Z,3112.00
2023-01-22T11:43:03.570Z,3236.00
2023-01-22T11:44:03.577Z,2660.00
2023-01-22T11:45:03.583Z,2528.00
2023-01-22T11:46:03.605Z,2664.00
2023-01-22T11:47:03.584Z,2696.00
2023-01-22T11:48:03.584Z,2708.00
2023-01-22T11:49:03.595Z,2900.00
2023-01-22T11:50:03.585Z,3296.00
2023-01-22T11:51:03.670Z,3080.00
2023-01-22T11:52:03.587Z,2852.00
2023-01-22T11:53:03.599Z,2664.00
2023-01-22T11:54:03.590Z,3028.00
2023-01-22T11:55:03.598Z,2836.00
2023-01-22T11:56:03.716Z,2784.00
2023-01-22T11:57:03.599Z,2732.00
2023-01-22T11:58:03.597Z,2780.00
2023-01-22T11:59:03.599Z,2460.00
2023-01-22T12:00:03.620Z,2480.00
2023-01-22T12:01:03.604Z,2696.00
2023-01-22T12:02:03.614Z,2952.00
2023-01-22T12:03:03.629Z,2776.00
2023-01-22T12:04:03.689Z,2740.00
2023-01-22T12:05:03.612Z,2340.00
2023-01-22T12:06:03.620Z,2420.00
2023-01-22T12:07:03.614Z,2448.00
2023-01-22T12:08:03.633Z,2596.00
2023-01-22T12:09:03.628Z,2544.00
2023-01-22T12:10:03.629Z,2268.00
2023-01-22T12:11:03.623Z,2536.00
2023-01-22T12:12:03.747Z,2584.00
2023-01-22T12:13:03.634Z,2700.00
2023-01-22T12:14:03.638Z,2792.00
2023-01-22T12:15:03.645Z,2688.00
2023-01-22T12:16:05.488Z,2680.00
2023-01-22T12:17:03.639Z,2912.00
2023-01-22T12:18:03.635Z,2636.00
2023-01-22T12:19:03.639Z,2360.00
2023-01-22T12:20:03.646Z,2284.00
2023-01-22T12:21:03.660Z,2276.00
2023-01-22T12:22:03.649Z,2300.00
2023-01-22T12:23:03.645Z,2272.00
2023-01-22T12:24:03.647Z,2072.00
2023-01-22T12:25:03.658Z,1860.00
2023-01-22T12:26:03.656Z,1772.00
2023-01-22T12:27:03.659Z,1732.00
2023-01-22T12:28:03.800Z,1684.00
2023-01-22T12:29:03.660Z,1744.00
2023-01-22T12:30:03.658Z,1832.00
2023-01-22T12:31:03.781Z,1968.00
2023-01-22T12:32:03.672Z,2040.00
2023-01-22T12:33:05.334Z,2332.00
2023-01-22T12:34:03.674Z,2032.00
2023-01-22T12:35:03.691Z,1868.00
2023-01-22T12:36:03.682Z,1868.00
2023-01-22T12:37:03.677Z,2280.00
2023-01-22T12:38:03.681Z,2276.00
2023-01-22T12:39:03.678Z,2184.00
2023-01-22T12:40:03.679Z,2504.00
2023-01-22T12:41:03.742Z,2176.00
2023-01-22T12:42:03.691Z,1988.00
2023-01-22T12:43:03.720Z,2412.00
2023-01-22T12:44:03.832Z,1916.00
2023-01-22T12:45:03.709Z,2068.00
2023-01-22T12:46:03.707Z,2064.00